Herald, Illinois
Current Conditions -  °F | °C
As of 7:55 AM on Monday 20 Oct 2014 (Local Time) from KCUL Reporting Station
Broken Clouds Broken Clouds  
Wind Chill: 52°   Ceiling: 11000
Heat Index: 52°   Visibility: 10mi
Dew Point: 50°   Wind: 5mph
Humidity: 94%   Direction: 180°S
Pressure: 30"   Gusts: NA
Location:  37.97°N, 88.18°W
Report Text: KCUL 201255Z AUTO 18004KT 10SM BKN110 11/10 A3000 RMK AO2 T01100100
Loading
Personal Weather Stations






























Interactive Weather Map
Tropical Storm Tracking
New forecast layout! Learn more

10-Day Weather Forecast

Advertisements
Track Severe Weather on mobile